Time;durP1;ratioP1;P1;durP2;ratioP2;P2;SDS_P1;SDS_P2;PMS_P1;PMS_P2;Temp;Humidity;BMP_temperature;BMP_pressure;BME280_temperature;BME280_humidity;BME280_pressure;Samples;Min_cycle;Max_cycle;Signal;HPM_P1;HPM_P2
2022/09/30 00:00:23;;;;;;;0.40;0.40;;;6.50;99.90;;;;;;5084137;28;20501;-74
2022/09/30 00:03:11;;;;;;;0.50;0.50;;;6.50;99.90;;;;;;5077887;28;20542;-73
2022/09/30 00:06:01;;;;;;;0.40;0.40;;;6.50;99.90;;;;;;5073601;28;20419;-74
2022/09/30 00:08:56;;;;;;;0.40;0.40;;;6.50;99.90;;;;;;5074123;28;20423;-73
2022/09/30 00:11:45;;;;;;;0.40;0.40;;;6.50;99.90;;;;;;5074176;28;20446;-74
2022/09/30 00:14:33;;;;;;;0.40;0.40;;;6.50;99.90;;;;;;5073429;28;20884;-74
2022/09/30 00:17:21;;;;;;;0.50;0.50;;;6.50;99.90;;;;;;5073194;28;20480;-73
2022/09/30 00:20:10;;;;;;;0.50;0.50;;;6.60;99.90;;;;;;5073145;28;20436;-74
2022/09/30 00:22:59;;;;;;;0.40;0.40;;;6.40;99.90;;;;;;5072493;28;20534;-74
2022/09/30 00:25:47;;;;;;;0.40;0.40;;;6.40;99.90;;;;;;5073165;28;20464;-73
2022/09/30 00:28:36;;;;;;;0.40;0.40;;;6.40;99.90;;;;;;5073607;28;20798;-73
2022/09/30 00:31:26;;;;;;;0.40;0.40;;;6.40;99.90;;;;;;5073045;28;20469;-73
2022/09/30 00:34:16;;;;;;;0.40;0.40;;;6.30;99.90;;;;;;5073306;28;20612;-73
2022/09/30 00:37:04;;;;;;;0.43;0.43;;;6.30;99.90;;;;;;5073854;28;20923;-74
2022/09/30 00:39:54;;;;;;;0.50;0.50;;;6.30;99.90;;;;;;5073944;28;20506;-74
2022/09/30 00:42:42;;;;;;;0.40;0.40;;;6.30;99.90;;;;;;5073603;28;20530;-74
2022/09/30 00:45:32;;;;;;;0.40;0.40;;;6.30;99.90;;;;;;5073406;28;20466;-74
2022/09/30 00:48:26;;;;;;;0.40;0.40;;;6.30;99.90;;;;;;5073710;28;20554;-74
2022/09/30 00:51:15;;;;;;;0.40;0.40;;;6.30;99.90;;;;;;5073202;28;20529;-75
2022/09/30 00:54:10;;;;;;;0.50;0.50;;;6.30;99.90;;;;;;5073001;28;20549;-74
2022/09/30 00:57:02;;;;;;;0.40;0.40;;;6.30;99.90;;;;;;5073647;28;20451;-73
2022/09/30 00:59:52;;;;;;;0.40;0.40;;;6.30;99.90;;;;;;5072655;28;20926;-73
2022/09/30 01:02:40;;;;;;;0.50;0.50;;;6.20;99.90;;;;;;5073832;28;20447;-73
2022/09/30 01:05:30;;;;;;;0.40;0.40;;;6.20;99.90;;;;;;5076337;28;21019;-75
2022/09/30 01:08:20;;;;;;;0.50;0.50;;;6.10;99.90;;;;;;5077490;28;20548;-74
2022/09/30 01:11:08;;;;;;;0.50;0.50;;;6.10;99.90;;;;;;5076151;28;20415;-74
2022/09/30 01:14:02;;;;;;;0.40;0.40;;;6.00;99.90;;;;;;5076469;28;20540;-74
2022/09/30 01:16:58;;;;;;;0.40;0.40;;;6.10;99.90;;;;;;5077160;28;20506;-73
2022/09/30 01:20:23;;;;;;;0.50;0.50;;;6.10;99.90;;;;;;5077143;28;20446;-72
2022/09/30 01:23:28;;;;;;;0.40;0.40;;;6.10;99.90;;;;;;5077388;28;20476;-73
2022/09/30 01:26:42;;;;;;;0.40;0.40;;;6.10;99.90;;;;;;5079469;28;20939;-73
2022/09/30 01:29:57;;;;;;;0.40;0.40;;;6.10;99.90;;;;;;5085732;28;20427;-74
2022/09/30 01:33:03;;;;;;;0.40;0.40;;;6.00;99.90;;;;;;5087072;28;21037;-73
2022/09/30 01:36:05;;;;;;;0.40;0.40;;;6.00;99.90;;;;;;5087513;28;20498;-73
2022/09/30 01:39:01;;;;;;;0.40;0.40;;;6.00;99.90;;;;;;5087988;28;20493;-74
2022/09/30 01:41:55;;;;;;;0.40;0.40;;;6.00;99.90;;;;;;5086667;28;20868;-74
2022/09/30 01:44:52;;;;;;;0.50;0.50;;;6.00;99.90;;;;;;5086658;28;20490;-73
2022/09/30 01:47:46;;;;;;;0.40;0.40;;;6.00;99.90;;;;;;5086166;28;20419;-73
2022/09/30 01:50:47;;;;;;;0.40;0.40;;;6.00;99.90;;;;;;5085988;28;20582;-73
2022/09/30 01:53:41;;;;;;;0.40;0.40;;;5.90;99.90;;;;;;5083251;28;20463;-74
2022/09/30 01:56:35;;;;;;;0.40;0.40;;;5.90;99.90;;;;;;5077787;28;20462;-73
2022/09/30 01:59:29;;;;;;;0.50;0.50;;;6.00;99.90;;;;;;5085024;28;20454;-74
2022/09/30 02:02:20;;;;;;;0.50;0.50;;;5.90;99.90;;;;;;5084252;28;20473;-74
2022/09/30 02:05:14;;;;;;;0.40;0.40;;;5.90;99.90;;;;;;5076645;28;20451;-73
2022/09/30 02:08:08;;;;;;;0.40;0.40;;;5.90;99.90;;;;;;5075917;28;20454;-74
2022/09/30 02:11:00;;;;;;;0.40;0.40;;;5.90;99.90;;;;;;5076201;28;20517;-73
2022/09/30 02:13:53;;;;;;;0.50;0.50;;;5.90;99.90;;;;;;5075720;28;20431;-74
2022/09/30 02:16:48;;;;;;;0.50;0.50;;;5.90;99.90;;;;;;5075716;28;20486;-74
2022/09/30 02:19:40;;;;;;;0.40;0.40;;;5.90;99.90;;;;;;5075456;28;20544;-73
2022/09/30 02:22:31;;;;;;;0.40;0.40;;;5.80;99.90;;;;;;5074910;28;20479;-73
2022/09/30 02:25:24;;;;;;;0.40;0.40;;;5.80;99.90;;;;;;5075603;28;20774;-73
2022/09/30 02:28:17;;;;;;;0.40;0.40;;;5.80;99.90;;;;;;5075860;28;20475;-73
2022/09/30 02:31:08;;;;;;;0.40;0.40;;;5.70;99.90;;;;;;5074991;28;20565;-74
2022/09/30 02:34:01;;;;;;;0.40;0.40;;;5.70;99.90;;;;;;5075280;28;20438;-73
2022/09/30 02:36:54;;;;;;;0.50;0.50;;;5.70;99.90;;;;;;5074691;28;20510;-73
2022/09/30 02:39:48;;;;;;;0.40;0.40;;;5.70;99.90;;;;;;5074774;28;20477;-73
2022/09/30 02:42:40;;;;;;;0.40;0.40;;;5.60;99.90;;;;;;5075058;28;20518;-73
2022/09/30 02:45:34;;;;;;;0.40;0.40;;;5.60;99.90;;;;;;5074670;28;20562;-73
2022/09/30 02:48:30;;;;;;;0.40;0.40;;;5.60;99.90;;;;;;5075332;28;20496;-74
2022/09/30 02:51:24;;;;;;;0.40;0.40;;;5.60;99.90;;;;;;5074368;28;20443;-73
2022/09/30 02:54:20;;;;;;;0.40;0.40;;;5.60;99.90;;;;;;5074556;28;20451;-74
2022/09/30 02:57:16;;;;;;;0.40;0.40;;;5.60;99.90;;;;;;5074779;28;20472;-73
2022/09/30 03:00:07;;;;;;;0.40;0.40;;;5.60;99.90;;;;;;5075453;28;20419;-74
2022/09/30 03:03:05;;;;;;;0.40;0.40;;;5.50;99.90;;;;;;5080511;28;20449;-74
2022/09/30 03:05:53;;;;;;;0.40;0.40;;;5.50;99.90;;;;;;5084965;28;20458;-75
2022/09/30 03:08:42;;;;;;;0.40;0.40;;;5.50;99.90;;;;;;5085610;28;20431;-74
2022/09/30 03:11:31;;;;;;;0.40;0.40;;;5.50;99.90;;;;;;5085628;28;20947;-75
2022/09/30 03:14:37;;;;;;;0.40;0.40;;;5.50;99.90;;;;;;5086927;28;20477;-74
2022/09/30 03:17:51;;;;;;;0.50;0.50;;;5.40;99.90;;;;;;5088724;28;20435;-74
2022/09/30 03:20:51;;;;;;;0.40;0.40;;;5.40;99.90;;;;;;5088867;28;20915;-74
2022/09/30 03:24:17;;;;;;;0.40;0.40;;;5.40;99.90;;;;;;5091808;28;20434;-74
2022/09/30 03:27:16;;;;;;;0.40;0.40;;;5.40;99.90;;;;;;5061949;28;20514;-74
2022/09/30 03:30:08;;;;;;;0.40;0.40;;;5.40;99.90;;;;;;5089870;28;20451;-74
2022/09/30 03:33:08;;;;;;;0.40;0.40;;;5.50;99.90;;;;;;5090914;28;20493;-74
2022/09/30 03:36:00;;;;;;;0.40;0.40;;;5.50;99.90;;;;;;5090726;28;20505;-72
2022/09/30 03:38:57;;;;;;;0.40;0.40;;;5.40;99.90;;;;;;5076429;28;20424;-72
2022/09/30 03:41:51;;;;;;;0.50;0.50;;;5.40;99.90;;;;;;5074077;28;20828;-72
2022/09/30 03:44:44;;;;;;;0.50;0.50;;;5.40;99.90;;;;;;5073820;28;21026;-72
2022/09/30 03:47:35;;;;;;;0.40;0.40;;;5.40;99.90;;;;;;5073430;28;20514;-72
2022/09/30 03:50:28;;;;;;;0.50;0.50;;;5.30;99.90;;;;;;5073360;28;20427;-72
2022/09/30 03:53:16;;;;;;;0.40;0.40;;;5.40;99.90;;;;;;5073070;28;20536;-72
2022/09/30 03:56:04;;;;;;;0.40;0.40;;;5.40;99.90;;;;;;5072892;28;20471;-72
2022/09/30 03:58:52;;;;;;;0.40;0.40;;;5.30;99.90;;;;;;5073132;28;20973;-72
2022/09/30 04:01:40;;;;;;;0.40;0.40;;;5.30;99.90;;;;;;5073099;28;20814;-72
2022/09/30 04:04:28;;;;;;;0.40;0.40;;;5.30;99.90;;;;;;5073834;28;20424;-72
2022/09/30 04:07:19;;;;;;;0.40;0.40;;;5.30;99.90;;;;;;5073485;28;20938;-72
2022/09/30 04:10:08;;;;;;;0.40;0.40;;;5.30;99.90;;;;;;5072818;28;20878;-73
2022/09/30 04:12:56;;;;;;;0.40;0.40;;;5.30;99.90;;;;;;5073495;28;20537;-72
2022/09/30 04:15:45;;;;;;;0.40;0.40;;;5.30;99.90;;;;;;5072930;28;20481;-72
2022/09/30 04:18:33;;;;;;;0.40;0.40;;;5.30;99.90;;;;;;5072772;28;20518;-72
2022/09/30 04:21:21;;;;;;;0.40;0.40;;;5.30;99.90;;;;;;5072041;28;21030;-72
2022/09/30 04:24:10;;;;;;;0.40;0.40;;;5.30;99.90;;;;;;5072694;28;20435;-71
2022/09/30 04:26:59;;;;;;;0.43;0.43;;;5.30;99.90;;;;;;5078935;28;20434;-72
2022/09/30 04:29:47;;;;;;;0.40;0.40;;;5.30;99.90;;;;;;5077515;28;20431;-72
2022/09/30 04:32:35;;;;;;;0.40;0.40;;;5.30;99.90;;;;;;5073364;28;21048;-71
2022/09/30 04:35:23;;;;;;;0.40;0.40;;;5.30;99.90;;;;;;5074065;28;21109;-71
2022/09/30 04:38:11;;;;;;;0.40;0.40;;;5.30;99.90;;;;;;5075321;28;20465;-71
2022/09/30 04:41:02;;;;;;;0.80;0.80;;;5.20;99.90;;;;;;5075946;28;20432;-72
2022/09/30 04:43:50;;;;;;;0.40;0.40;;;5.20;99.90;;;;;;5081187;28;20415;-74
2022/09/30 04:46:38;;;;;;;0.40;0.40;;;5.20;99.90;;;;;;5079738;28;20493;-73
2022/09/30 04:49:26;;;;;;;0.50;0.50;;;5.20;99.90;;;;;;5079854;28;20553;-72
2022/09/30 04:52:14;;;;;;;0.40;0.40;;;5.20;99.90;;;;;;5080334;28;20576;-73
2022/09/30 04:55:03;;;;;;;0.40;0.40;;;5.20;99.90;;;;;;5079429;28;20495;-72
2022/09/30 04:57:52;;;;;;;0.40;0.40;;;5.20;99.90;;;;;;5074713;28;20510;-72
2022/09/30 05:00:40;;;;;;;0.50;0.50;;;5.20;99.90;;;;;;5076298;28;20419;-72
2022/09/30 05:03:29;;;;;;;0.40;0.40;;;5.10;99.90;;;;;;5075676;28;20506;-72
2022/09/30 05:06:17;;;;;;;0.40;0.40;;;5.10;99.90;;;;;;5074812;28;20510;-72
2022/09/30 05:09:05;;;;;;;0.40;0.40;;;5.10;99.90;;;;;;5073499;28;20423;-72
2022/09/30 05:11:53;;;;;;;0.40;0.40;;;5.10;99.90;;;;;;5072669;28;20444;-72
2022/09/30 05:14:43;;;;;;;0.40;0.40;;;5.20;99.90;;;;;;5072856;28;20500;-71
2022/09/30 05:17:31;;;;;;;0.40;0.40;;;5.20;99.90;;;;;;5073106;28;20550;-72
2022/09/30 05:20:19;;;;;;;0.40;0.40;;;5.20;99.90;;;;;;5073723;28;20496;-72
2022/09/30 05:23:08;;;;;;;0.40;0.40;;;5.20;99.90;;;;;;5074493;28;21000;-72
2022/09/30 05:25:57;;;;;;;0.60;0.60;;;5.20;99.90;;;;;;5073503;28;20423;-72
2022/09/30 05:28:45;;;;;;;0.50;0.50;;;5.20;99.90;;;;;;5073152;28;21081;-72
2022/09/30 05:31:34;;;;;;;0.50;0.50;;;5.20;99.90;;;;;;5071596;28;20542;-76
2022/09/30 05:34:23;;;;;;;0.50;0.50;;;5.30;99.90;;;;;;5073329;28;20808;-72
2022/09/30 05:37:11;;;;;;;1.00;1.00;;;5.30;99.90;;;;;;5073548;28;20463;-72
2022/09/30 05:39:59;;;;;;;0.40;0.40;;;5.30;99.90;;;;;;5074329;28;20518;-73
2022/09/30 05:42:48;;;;;;;0.40;0.40;;;5.30;99.90;;;;;;5083226;28;20538;-72
2022/09/30 05:45:37;;;;;;;0.40;0.40;;;5.30;99.90;;;;;;5083229;28;20478;-73
2022/09/30 05:48:27;;;;;;;0.50;0.50;;;5.40;99.90;;;;;;5085623;28;20863;-73
2022/09/30 05:51:15;;;;;;;0.40;0.40;;;5.50;99.90;;;;;;5086785;28;20512;-72
2022/09/30 05:54:03;;;;;;;0.40;0.40;;;5.50;99.90;;;;;;5086901;28;20504;-73
2022/09/30 05:56:51;;;;;;;0.47;0.47;;;5.50;99.90;;;;;;5086625;28;20470;-72
2022/09/30 05:59:39;;;;;;;0.50;0.50;;;5.60;99.90;;;;;;5085654;28;20494;-74
2022/09/30 06:02:27;;;;;;;1.83;1.73;;;5.50;99.90;;;;;;5074798;28;20494;-74
2022/09/30 06:05:17;;;;;;;0.50;0.50;;;5.70;99.90;;;;;;5077052;28;20430;-73
2022/09/30 06:08:06;;;;;;;0.50;0.50;;;5.70;99.90;;;;;;5062097;28;20515;-71
2022/09/30 06:10:54;;;;;;;0.40;0.40;;;5.80;99.90;;;;;;5061397;28;20526;-72
2022/09/30 06:13:44;;;;;;;0.50;0.50;;;5.90;99.90;;;;;;5076791;28;21020;-72
2022/09/30 06:16:32;;;;;;;0.40;0.40;;;6.00;99.90;;;;;;5076107;28;20569;-72
2022/09/30 06:19:20;;;;;;;0.50;0.50;;;6.00;99.90;;;;;;5075169;28;20431;-72
2022/09/30 06:22:09;;;;;;;0.40;0.40;;;6.00;99.90;;;;;;5075516;28;20467;-72
2022/09/30 06:24:58;;;;;;;0.40;0.40;;;6.00;99.90;;;;;;5075289;28;20461;-72
2022/09/30 06:27:47;;;;;;;0.50;0.50;;;6.20;99.90;;;;;;5074854;28;20864;-72
2022/09/30 06:30:35;;;;;;;0.40;0.40;;;6.20;99.90;;;;;;5073026;28;20787;-73
2022/09/30 06:33:23;;;;;;;0.40;0.40;;;6.20;99.90;;;;;;5075506;28;20472;-73
2022/09/30 06:36:11;;;;;;;0.50;0.50;;;6.30;99.90;;;;;;5073950;28;20462;-74
2022/09/30 06:39:02;;;;;;;0.40;0.40;;;6.30;99.90;;;;;;5074364;28;20427;-74
2022/09/30 06:41:50;;;;;;;0.40;0.40;;;6.40;99.90;;;;;;5073468;28;20475;-72
2022/09/30 06:44:38;;;;;;;0.40;0.40;;;6.40;99.90;;;;;;5073796;28;20569;-73
2022/09/30 06:47:40;;;;;;;0.40;0.40;;;6.40;99.90;;;;;;5089429;28;20418;-72
2022/09/30 06:50:44;;;;;;;0.47;0.47;;;6.50;99.90;;;;;;5094028;28;20433;-73
2022/09/30 06:53:51;;;;;;;1.40;1.40;;;6.60;99.90;;;;;;5094314;28;20437;-73
2022/09/30 06:56:42;;;;;;;0.40;0.40;;;6.70;99.90;;;;;;5079824;28;20854;-75
2022/09/30 06:59:31;;;;;;;0.43;0.43;;;6.80;99.90;;;;;;5071729;28;20939;-71
2022/09/30 07:02:19;;;;;;;0.40;0.40;;;6.80;99.90;;;;;;5054323;28;20534;-72
2022/09/30 07:05:08;;;;;;;0.50;0.50;;;6.90;99.90;;;;;;5056688;28;20586;-72
2022/09/30 07:07:56;;;;;;;0.40;0.40;;;7.00;99.90;;;;;;5061272;28;20431;-72
2022/09/30 07:10:46;;;;;;;0.50;0.50;;;7.10;99.90;;;;;;5068268;28;20424;-72
2022/09/30 07:13:36;;;;;;;0.40;0.40;;;7.20;99.90;;;;;;5074701;28;20428;-73
2022/09/30 07:16:24;;;;;;;0.50;0.50;;;7.30;99.90;;;;;;5072846;28;20431;-72
2022/09/30 07:19:13;;;;;;;0.50;0.50;;;7.30;99.90;;;;;;5073483;28;20589;-72
2022/09/30 07:25:05;;;;;;;0.40;0.40;;;7.60;99.90;;;;;;5072348;28;20438;-71
2022/09/30 07:27:55;;;;;;;0.40;0.40;;;7.70;99.90;;;;;;5072245;28;20419;-73
2022/09/30 07:30:44;;;;;;;0.40;0.40;;;7.80;99.90;;;;;;5071902;28;20454;-71
2022/09/30 07:33:34;;;;;;;0.40;0.40;;;7.90;99.90;;;;;;5067273;28;20526;-74
2022/09/30 07:36:28;;;;;;;0.40;0.40;;;8.00;99.90;;;;;;5053094;28;20405;-73
2022/09/30 07:39:20;;;;;;;0.50;0.50;;;8.10;99.90;;;;;;5071851;28;20419;-72
2022/09/30 07:42:09;;;;;;;0.50;0.50;;;8.20;99.90;;;;;;5067734;28;20448;-72
2022/09/30 07:44:57;;;;;;;0.40;0.40;;;8.40;99.90;;;;;;5061808;28;20525;-72
2022/09/30 07:47:46;;;;;;;0.40;0.40;;;8.50;99.90;;;;;;5072773;28;20518;-72
2022/09/30 07:50:44;;;;;;;0.40;0.40;;;8.60;99.90;;;;;;5073748;28;20430;-72
2022/09/30 07:53:32;;;;;;;0.40;0.40;;;8.70;99.90;;;;;;5072752;28;20526;-73
2022/09/30 07:56:22;;;;;;;0.40;0.40;;;8.80;99.90;;;;;;5072558;28;20504;-72
2022/09/30 07:59:11;;;;;;;0.50;0.50;;;8.90;99.90;;;;;;5072550;28;20431;-72
2022/09/30 08:02:00;;;;;;;0.47;0.47;;;9.00;99.90;;;;;;5068290;28;20459;-74
2022/09/30 08:04:49;;;;;;;0.40;0.40;;;9.10;99.90;;;;;;5074120;28;20427;-73
2022/09/30 08:07:40;;;;;;;0.40;0.40;;;9.30;99.90;;;;;;5062139;28;20416;-72
2022/09/30 08:10:33;;;;;;;0.40;0.40;;;9.40;99.90;;;;;;5052950;28;20424;-72
2022/09/30 08:13:21;;;;;;;0.40;0.40;;;9.60;99.90;;;;;;5054405;28;21040;-72
2022/09/30 08:16:09;;;;;;;0.40;0.40;;;9.70;99.90;;;;;;5052519;28;20432;-72
2022/09/30 08:19:01;;;;;;;0.40;0.40;;;9.80;99.90;;;;;;5051342;28;20494;-73
2022/09/30 08:21:52;;;;;;;0.47;0.47;;;10.00;99.90;;;;;;5053374;28;20547;-72
2022/09/30 08:24:41;;;;;;;0.40;0.40;;;10.00;99.90;;;;;;5053952;28;20436;-73
2022/09/30 08:27:29;;;;;;;0.40;0.40;;;10.10;99.90;;;;;;5090382;28;20426;-72
2022/09/30 08:30:18;;;;;;;0.40;0.40;;;10.30;99.90;;;;;;5094352;28;20433;-71
2022/09/30 08:33:07;;;;;;;0.40;0.40;;;10.40;99.90;;;;;;5093554;28;20539;-72
2022/09/30 08:35:55;;;;;;;0.40;0.40;;;10.50;99.90;;;;;;5094784;28;20723;-71
2022/09/30 08:38:45;;;;;;;0.40;0.40;;;10.60;99.90;;;;;;5093045;28;20535;-72
2022/09/30 08:42:02;;;;;;;0.40;0.40;;;10.60;99.90;;;;;;5093404;28;20438;-71
2022/09/30 08:45:20;;;;;;;0.40;0.40;;;10.70;99.90;;;;;;5094086;28;20426;-73
2022/09/30 08:48:22;;;;;;;0.40;0.40;;;10.90;99.90;;;;;;5092624;28;20453;-72
2022/09/30 08:51:28;;;;;;;0.40;0.40;;;10.90;99.90;;;;;;5093349;28;20452;-74
2022/09/30 08:54:24;;;;;;;0.40;0.40;;;11.10;99.90;;;;;;5092720;28;20753;-72
2022/09/30 08:57:13;;;;;;;0.40;0.40;;;11.10;99.90;;;;;;5074517;28;20505;-72
2022/09/30 09:00:06;;;;;;;0.40;0.40;;;11.30;99.90;;;;;;5071956;28;20520;-71
2022/09/30 09:02:57;;;;;;;0.40;0.40;;;11.40;99.90;;;;;;5056613;28;20480;-72
2022/09/30 09:05:52;;;;;;;0.40;0.40;;;11.50;99.90;;;;;;5068928;28;20486;-72
2022/09/30 09:08:53;;;;;;;0.40;0.40;;;11.60;99.90;;;;;;5073317;28;20522;-71
2022/09/30 09:11:59;;;;;;;0.40;0.40;;;11.70;99.90;;;;;;5074184;28;20497;-71
2022/09/30 09:15:08;;;;;;;0.40;0.40;;;11.80;99.90;;;;;;5073448;28;20528;-71
2022/09/30 09:18:10;;;;;;;0.40;0.40;;;11.90;99.90;;;;;;5073594;28;20516;-70
2022/09/30 09:21:20;;;;;;;0.40;0.40;;;12.20;99.90;;;;;;5073699;28;20453;-71
2022/09/30 09:24:15;;;;;;;0.40;0.40;;;12.20;99.90;;;;;;5076033;28;20457;-70
2022/09/30 09:27:18;;;;;;;0.40;0.40;;;12.30;99.90;;;;;;5077943;28;20540;-72
2022/09/30 09:30:09;;;;;;;0.40;0.40;;;12.40;99.90;;;;;;5078120;28;20415;-70
2022/09/30 09:33:00;;;;;;;0.40;0.40;;;12.50;99.90;;;;;;5077023;28;20544;-70
2022/09/30 09:35:54;;;;;;;0.40;0.40;;;12.60;99.90;;;;;;5105605;22;20902;-72
2022/09/30 09:39:03;;;;;;;0.40;0.40;;;12.70;99.90;;;;;;5095686;28;20587;-72
2022/09/30 09:41:58;;;;;;;0.40;0.40;;;12.80;99.90;;;;;;5096667;28;20436;-73
2022/09/30 09:44:54;;;;;;;0.40;0.40;;;12.90;99.90;;;;;;5096536;28;20476;-71
2022/09/30 09:47:46;;;;;;;1.23;1.03;;;13.00;99.90;;;;;;5076150;28;20429;-72
2022/09/30 09:50:46;;;;;;;0.40;0.40;;;13.00;99.90;;;;;;5076699;28;20479;-72
2022/09/30 09:53:44;;;;;;;0.40;0.40;;;13.10;99.90;;;;;;5061742;28;20960;-71
2022/09/30 09:56:33;;;;;;;0.40;0.40;;;13.30;99.90;;;;;;5076405;28;20450;-72
2022/09/30 09:59:21;;;;;;;0.40;0.40;;;13.30;99.90;;;;;;5076127;28;20509;-72
2022/09/30 10:02:24;;;;;;;0.40;0.40;;;13.40;99.90;;;;;;5090722;28;20498;-71
2022/09/30 10:05:24;;;;;;;0.40;0.40;;;13.50;99.90;;;;;;5082102;28;20460;-72
2022/09/30 10:08:16;;;;;;;0.40;0.40;;;13.60;99.90;;;;;;5075731;28;20416;-71
2022/09/30 10:11:06;;;;;;;0.40;0.40;;;13.60;99.90;;;;;;5075725;28;20517;-72
2022/09/30 10:13:57;;;;;;;0.40;0.40;;;13.70;99.90;;;;;;5074976;28;20423;-70
2022/09/30 10:16:46;;;;;;;0.40;0.40;;;13.70;99.90;;;;;;5074914;28;20800;-72
2022/09/30 10:19:36;;;;;;;0.40;0.40;;;13.80;99.90;;;;;;5075191;28;20949;-72
2022/09/30 10:22:27;;;;;;;0.40;0.40;;;13.80;99.90;;;;;;5075241;28;20451;-72
2022/09/30 10:25:23;;;;;;;0.40;0.40;;;13.80;99.90;;;;;;5074692;28;20505;-72
2022/09/30 10:28:23;;;;;;;0.40;0.40;;;13.90;99.90;;;;;;5074053;28;20451;-72
2022/09/30 10:31:15;;;;;;;0.50;0.50;;;14.00;99.90;;;;;;5055560;28;20428;-72
2022/09/30 10:34:25;;;;;;;0.40;0.40;;;14.00;99.90;;;;;;5054625;28;20439;-73
2022/09/30 10:37:19;;;;;;;2.63;0.77;;;14.10;99.90;;;;;;5054142;28;20533;-72
2022/09/30 10:40:16;;;;;;;0.40;0.40;;;14.10;99.90;;;;;;5054850;28;20464;-72
2022/09/30 10:43:04;;;;;;;0.40;0.40;;;14.20;99.90;;;;;;5055082;28;20999;-72
2022/09/30 10:45:53;;;;;;;0.40;0.40;;;14.30;99.90;;;;;;5067094;28;20506;-72
2022/09/30 10:49:09;;;;;;;0.40;0.40;;;14.30;99.90;;;;;;5073550;28;20419;-72
2022/09/30 10:51:59;;;;;;;0.40;0.40;;;14.30;99.90;;;;;;5076315;28;20485;-73
2022/09/30 10:54:53;;;;;;;0.40;0.40;;;14.30;99.90;;;;;;5075580;28;20455;-73
2022/09/30 10:57:41;;;;;;;0.40;0.40;;;14.30;99.90;;;;;;5076623;28;20435;-72
2022/09/30 11:00:31;;;;;;;0.40;0.40;;;14.40;99.90;;;;;;5075747;28;20554;-73
2022/09/30 11:03:25;;;;;;;0.40;0.40;;;14.50;99.90;;;;;;5078353;28;20451;-72
2022/09/30 11:06:14;;;;;;;0.40;0.40;;;14.60;99.90;;;;;;5090039;28;20482;-72
2022/09/30 11:09:07;;;;;;;0.53;0.53;;;;;;;;;;5086871;28;20671;-72
2022/09/30 11:12:02;;;;;;;0.40;0.40;;;14.60;99.90;;;;;;5089848;28;20427;-72
2022/09/30 11:14:57;;;;;;;0.40;0.40;;;14.70;99.90;;;;;;5089372;28;20466;-71
2022/09/30 11:17:53;;;;;;;0.40;0.40;;;14.80;99.90;;;;;;5087969;28;20473;-70
2022/09/30 11:20:45;;;;;;;0.50;0.50;;;14.80;99.90;;;;;;5090165;28;20459;-71
2022/09/30 11:23:38;;;;;;;0.40;0.40;;;14.90;99.90;;;;;;5090304;28;20451;-72
2022/09/30 11:26:38;;;;;;;0.40;0.40;;;15.00;99.90;;;;;;5089410;28;20466;-71
2022/09/30 11:29:42;;;;;;;0.40;0.40;;;15.00;99.90;;;;;;5087865;28;20512;-72
2022/09/30 11:32:52;;;;;;;0.40;0.40;;;14.90;99.90;;;;;;5084244;28;20200;-72
2022/09/30 11:35:51;;;;;;;0.40;0.40;;;14.80;99.90;;;;;;5072005;28;20990;-72
2022/09/30 11:38:56;;;;;;;0.40;0.40;;;14.70;99.90;;;;;;5070521;28;20998;-72
2022/09/30 11:41:50;;;;;;;0.40;0.40;;;14.70;99.90;;;;;;5075517;28;20769;-73
2022/09/30 11:44:44;;;;;;;0.50;0.50;;;14.80;99.90;;;;;;5073041;28;20469;-71
2022/09/30 11:47:53;;;;;;;0.40;0.40;;;14.90;99.90;;;;;;5072245;28;20497;-72
2022/09/30 11:50:51;;;;;;;0.83;0.83;;;15.10;99.90;;;;;;5072419;28;20517;-73
2022/09/30 11:53:49;;;;;;;0.40;0.40;;;15.30;99.90;;;;;;5060911;28;20276;-71
2022/09/30 11:56:46;;;;;;;0.40;0.40;;;15.40;99.90;;;;;;5051970;28;20267;-71
2022/09/30 11:59:43;;;;;;;0.40;0.40;;;15.50;99.90;;;;;;5051240;28;20243;-71
2022/09/30 12:02:36;;;;;;;0.40;0.40;;;15.50;99.90;;;;;;5052097;28;20412;-72
2022/09/30 12:05:28;;;;;;;0.40;0.40;;;15.60;99.90;;;;;;5052175;28;20275;-72
2022/09/30 12:08:21;;;;;;;0.47;0.47;;;15.50;99.90;;;;;;5052260;28;20201;-71
2022/09/30 12:11:13;;;;;;;0.40;0.40;;;15.40;99.90;;;;;;5065847;28;20704;-72
2022/09/30 12:14:10;;;;;;;0.40;0.40;;;15.20;99.90;;;;;;5072132;28;20247;-71
2022/09/30 12:17:03;;;;;;;0.50;0.50;;;15.20;99.90;;;;;;5074023;28;20256;-71
2022/09/30 12:19:54;;;;;;;0.40;0.40;;;15.10;99.90;;;;;;5065533;28;20475;-71
2022/09/30 12:22:45;;;;;;;0.40;0.40;;;15.00;99.90;;;;;;5053066;28;20247;-72
2022/09/30 12:25:40;;;;;;;0.40;0.40;;;15.00;99.90;;;;;;5052250;28;20263;-72
2022/09/30 12:31:59;;;;;;;0.40;0.40;;;15.10;99.90;;;;;;5053734;28;20428;-71
2022/09/30 12:35:03;;;;;;;0.40;0.40;;;15.10;99.90;;;;;;5053450;28;20481;-71
2022/09/30 12:38:06;;;;;;;0.40;0.40;;;15.30;99.90;;;;;;5073171;28;20207;-71
2022/09/30 12:41:02;;;;;;;0.40;0.40;;;15.50;99.90;;;;;;5066475;28;20201;-70
2022/09/30 12:44:18;;;;;;;0.40;0.40;;;15.70;99.90;;;;;;5075427;28;20220;-71
2022/09/30 12:47:26;;;;;;;0.40;0.40;;;15.80;99.90;;;;;;5064937;28;20244;-71
2022/09/30 12:50:19;;;;;;;0.40;0.40;;;15.90;99.90;;;;;;5065045;28;20275;-71
2022/09/30 12:53:16;;;;;;;0.40;0.40;;;16.10;99.90;;;;;;5058756;28;20252;-71
2022/09/30 12:56:08;;;;;;;0.40;0.40;;;16.10;99.90;;;;;;5069979;28;20258;-72
2022/09/30 12:58:59;;;;;;;0.40;0.40;;;16.30;99.90;;;;;;5062842;28;20562;-71
2022/09/30 13:01:48;;;;;;;0.40;0.40;;;16.60;99.90;;;;;;5056479;28;20223;-72
2022/09/30 13:04:38;;;;;;;0.40;0.40;;;16.90;99.90;;;;;;5057250;28;20201;-71
2022/09/30 13:07:27;;;;;;;0.40;0.40;;;17.00;99.90;;;;;;5076891;28;20204;-71
2022/09/30 13:10:26;;;;;;;0.40;0.40;;;16.90;99.90;;;;;;5055684;28;20274;-72
2022/09/30 13:13:23;;;;;;;0.40;0.40;;;16.80;99.90;;;;;;5066188;28;20213;-72
2022/09/30 13:16:11;;;;;;;0.40;0.40;;;16.70;99.90;;;;;;5075621;28;20295;-72
2022/09/30 13:19:01;;;;;;;0.43;0.43;;;16.70;99.90;;;;;;5060283;28;20648;-72
2022/09/30 13:21:49;;;;;;;0.40;0.40;;;16.90;99.90;;;;;;5061885;28;20204;-73
2022/09/30 13:25:10;;;;;;;0.40;0.40;;;17.00;99.90;;;;;;5061308;28;20570;-73
2022/09/30 13:28:28;;;;;;;0.40;0.40;;;17.20;99.90;;;;;;5062545;28;20194;-69
2022/09/30 13:31:18;;;;;;;0.40;0.40;;;17.50;99.90;;;;;;5064423;28;20198;-69
2022/09/30 13:34:10;;;;;;;0.40;0.40;;;17.90;99.90;;;;;;5074012;28;20202;-68
2022/09/30 13:37:00;;;;;;;0.40;0.40;;;19.30;99.90;;;;;;5093532;28;20263;-69
2022/09/30 13:39:54;;;;;;;0.40;0.40;;;21.20;99.90;;;;;;5094237;28;20304;-69
2022/09/30 13:42:51;;;;;;;0.40;0.40;;;22.70;99.90;;;;;;5094284;28;20231;-69
2022/09/30 13:45:41;;;;;;;0.40;0.40;;;23.40;95.90;;;;;;5090161;28;20224;-70
2022/09/30 13:48:33;;;;;;;0.40;0.40;;;24.50;93.40;;;;;;5076356;28;20196;-70
2022/09/30 13:51:24;;;;;;;0.40;0.40;;;24.50;88.60;;;;;;5062375;28;20196;-69
2022/09/30 13:54:27;;;;;;;0.40;0.30;;;23.10;89.00;;;;;;5067218;28;20673;-69
2022/09/30 13:57:20;;;;;;;0.40;0.40;;;21.70;90.50;;;;;;5055255;28;20312;-69
2022/09/30 14:00:14;;;;;;;0.40;0.40;;;20.80;91.30;;;;;;5054997;28;20247;-69
2022/09/30 14:03:12;;;;;;;0.40;0.40;;;20.50;92.00;;;;;;5054373;28;20254;-69
2022/09/30 14:06:11;;;;;;;0.40;0.40;;;20.10;92.80;;;;;;5054558;28;20217;-69
2022/09/30 14:09:24;;;;;;;0.40;0.40;;;19.50;92.60;;;;;;5054525;28;20236;-69
2022/09/30 14:12:28;;;;;;;0.40;0.40;;;19.10;92.60;;;;;;5054747;28;20243;-69
2022/09/30 14:15:38;;;;;;;0.40;0.40;;;19.40;93.30;;;;;;5054163;28;20710;-69
2022/09/30 14:18:43;;;;;;;3.33;0.82;;;19.20;93.30;;;;;;5053922;28;20201;-69
2022/09/30 14:21:37;;;;;;;0.70;0.70;;;18.80;92.50;;;;;;5054253;28;20358;-69
2022/09/30 14:24:26;;;;;;;0.40;0.40;;;19.40;93.00;;;;;;5055249;28;20197;-69
2022/09/30 14:27:33;;;;;;;0.40;0.40;;;20.00;92.30;;;;;;5054789;28;20314;-69
2022/09/30 14:30:24;;;;;;;0.40;0.40;;;20.80;92.20;;;;;;5053189;28;20197;-69
2022/09/30 14:33:23;;;;;;;0.40;0.40;;;22.90;90.00;;;;;;5053868;28;20232;-69
2022/09/30 14:36:14;;;;;;;0.40;0.30;;;24.30;85.50;;;;;;5053732;28;20674;-69
2022/09/30 14:39:02;;;;;;;0.40;0.40;;;24.20;81.70;;;;;;5054321;28;20302;-69
2022/09/30 14:41:54;;;;;;;0.40;0.40;;;23.50;82.50;;;;;;5053370;28;20267;-68
2022/09/30 14:44:42;;;;;;;0.40;0.40;;;22.50;84.40;;;;;;5053606;28;20775;-69
2022/09/30 14:47:36;;;;;;;0.40;0.40;;;21.50;86.70;;;;;;5054492;28;20247;-70
2022/09/30 14:50:29;;;;;;;0.40;0.40;;;21.40;87.50;;;;;;5055067;28;20221;-69
2022/09/30 14:53:25;;;;;;;0.40;0.40;;;21.40;87.90;;;;;;5054391;28;20229;-70
2022/09/30 14:56:20;;;;;;;0.40;0.40;;;21.40;88.50;;;;;;5053913;28;20280;-70
2022/09/30 14:59:17;;;;;;;0.40;0.40;;;21.10;89.70;;;;;;5054873;28;20205;-67
2022/09/30 15:02:17;;;;;;;0.40;0.40;;;20.80;89.90;;;;;;5054046;28;20274;-70
2022/09/30 15:05:11;;;;;;;0.40;0.40;;;20.00;90.60;;;;;;5054420;28;20286;-72
2022/09/30 15:08:00;;;;;;;0.40;0.40;;;19.90;90.60;;;;;;5055599;28;20658;-68
2022/09/30 15:10:50;;;;;;;0.40;0.40;;;19.60;91.10;;;;;;5054466;28;20225;-69
2022/09/30 15:13:40;;;;;;;0.40;0.40;;;19.30;91.90;;;;;;5055113;28;20209;-67
2022/09/30 15:16:30;;;;;;;0.50;0.50;;;19.00;92.20;;;;;;5057074;28;20252;-69